sensor_id;sensor_type;location;lat;lon;timestamp;P1;durP1;ratioP1;P2;durP2;ratioP2
8803;SDS011;4438;50.890;4.726;2022-08-01T00:01:37;2.73;;;2.10;;
8803;SDS011;4438;50.890;4.726;2022-08-01T00:04:04;2.70;;;1.90;;
8803;SDS011;4438;50.890;4.726;2022-08-01T00:06:30;3.23;;;2.30;;
8803;SDS011;4438;50.890;4.726;2022-08-01T00:08:56;2.40;;;2.20;;
8803;SDS011;4438;50.890;4.726;2022-08-01T00:11:22;3.10;;;2.40;;
8803;SDS011;4438;50.890;4.726;2022-08-01T00:13:48;2.90;;;2.60;;
8803;SDS011;4438;50.890;4.726;2022-08-01T00:16:14;2.63;;;2.20;;
8803;SDS011;4438;50.890;4.726;2022-08-01T00:18:41;3.53;;;2.50;;
8803;SDS011;4438;50.890;4.726;2022-08-01T00:21:07;3.67;;;2.30;;
8803;SDS011;4438;50.890;4.726;2022-08-01T00:23:33;3.30;;;2.47;;
8803;SDS011;4438;50.890;4.726;2022-08-01T00:25:59;3.83;;;2.80;;
8803;SDS011;4438;50.890;4.726;2022-08-01T00:28:25;3.67;;;3.10;;
8803;SDS011;4438;50.890;4.726;2022-08-01T00:30:51;4.80;;;3.60;;
8803;SDS011;4438;50.890;4.726;2022-08-01T00:33:18;4.30;;;3.47;;
8803;SDS011;4438;50.890;4.726;2022-08-01T00:35:44;3.90;;;3.50;;
8803;SDS011;4438;50.890;4.726;2022-08-01T00:38:10;3.70;;;2.90;;
8803;SDS011;4438;50.890;4.726;2022-08-01T00:40:36;5.60;;;3.47;;
8803;SDS011;4438;50.890;4.726;2022-08-01T00:43:02;4.03;;;3.53;;
8803;SDS011;4438;50.890;4.726;2022-08-01T00:45:29;5.10;;;3.67;;
8803;SDS011;4438;50.890;4.726;2022-08-01T00:47:55;4.90;;;3.50;;
8803;SDS011;4438;50.890;4.726;2022-08-01T00:50:21;4.70;;;3.80;;
8803;SDS011;4438;50.890;4.726;2022-08-01T00:52:47;4.57;;;3.30;;
8803;SDS011;4438;50.890;4.726;2022-08-01T00:55:13;5.30;;;3.73;;
8803;SDS011;4438;50.890;4.726;2022-08-01T00:57:39;4.37;;;3.87;;
8803;SDS011;4438;50.890;4.726;2022-08-01T01:00:06;7.93;;;4.70;;
8803;SDS011;4438;50.890;4.726;2022-08-01T01:02:32;5.27;;;4.43;;
8803;SDS011;4438;50.890;4.726;2022-08-01T01:04:59;5.23;;;4.60;;
8803;SDS011;4438;50.890;4.726;2022-08-01T01:07:32;5.37;;;4.70;;
8803;SDS011;4438;50.890;4.726;2022-08-01T01:10:02;4.53;;;4.03;;
8803;SDS011;4438;50.890;4.726;2022-08-01T01:17:47;6.43;;;4.00;;
8803;SDS011;4438;50.890;4.726;2022-08-01T01:20:14;4.33;;;3.93;;
8803;SDS011;4438;50.890;4.726;2022-08-01T01:28:17;5.10;;;4.03;;
8803;SDS011;4438;50.890;4.726;2022-08-01T01:30:46;6.73;;;4.33;;
8803;SDS011;4438;50.890;4.726;2022-08-01T01:33:14;7.93;;;4.40;;
8803;SDS011;4438;50.890;4.726;2022-08-01T01:35:42;4.33;;;3.93;;
8803;SDS011;4438;50.890;4.726;2022-08-01T01:38:12;5.53;;;4.20;;
8803;SDS011;4438;50.890;4.726;2022-08-01T01:40:40;5.57;;;4.07;;
8803;SDS011;4438;50.890;4.726;2022-08-01T01:43:08;5.43;;;4.30;;
8803;SDS011;4438;50.890;4.726;2022-08-01T01:45:35;5.50;;;4.60;;
8803;SDS011;4438;50.890;4.726;2022-08-01T01:48:02;4.90;;;4.33;;
8803;SDS011;4438;50.890;4.726;2022-08-01T01:50:29;4.30;;;3.87;;
8803;SDS011;4438;50.890;4.726;2022-08-01T01:52:55;5.30;;;4.80;;
8803;SDS011;4438;50.890;4.726;2022-08-01T01:55:22;5.23;;;4.60;;
8803;SDS011;4438;50.890;4.726;2022-08-01T01:57:49;7.17;;;5.13;;
8803;SDS011;4438;50.890;4.726;2022-08-01T02:00:16;5.33;;;4.33;;
8803;SDS011;4438;50.890;4.726;2022-08-01T02:02:42;5.70;;;5.03;;
8803;SDS011;4438;50.890;4.726;2022-08-01T02:05:09;5.03;;;4.47;;
8803;SDS011;4438;50.890;4.726;2022-08-01T02:07:35;5.23;;;4.73;;
8803;SDS011;4438;50.890;4.726;2022-08-01T02:10:03;4.97;;;4.23;;
8803;SDS011;4438;50.890;4.726;2022-08-01T02:12:29;5.13;;;4.37;;
8803;SDS011;4438;50.890;4.726;2022-08-01T02:14:58;5.33;;;4.30;;
8803;SDS011;4438;50.890;4.726;2022-08-01T02:17:25;4.80;;;3.70;;
8803;SDS011;4438;50.890;4.726;2022-08-01T02:19:52;5.80;;;4.20;;
8803;SDS011;4438;50.890;4.726;2022-08-01T02:24:55;6.33;;;4.90;;
8803;SDS011;4438;50.890;4.726;2022-08-01T02:27:28;7.03;;;5.27;;
8803;SDS011;4438;50.890;4.726;2022-08-01T02:30:00;7.40;;;5.27;;
8803;SDS011;4438;50.890;4.726;2022-08-01T02:32:30;5.77;;;5.20;;
8803;SDS011;4438;50.890;4.726;2022-08-01T02:34:57;6.20;;;5.57;;
8803;SDS011;4438;50.890;4.726;2022-08-01T02:37:26;7.50;;;5.77;;
8803;SDS011;4438;50.890;4.726;2022-08-01T02:39:52;6.30;;;5.00;;
8803;SDS011;4438;50.890;4.726;2022-08-01T02:42:19;6.17;;;5.57;;
8803;SDS011;4438;50.890;4.726;2022-08-01T02:44:46;6.37;;;5.70;;
8803;SDS011;4438;50.890;4.726;2022-08-01T02:47:14;7.40;;;5.87;;
8803;SDS011;4438;50.890;4.726;2022-08-01T02:49:45;7.60;;;6.80;;
8803;SDS011;4438;50.890;4.726;2022-08-01T02:52:13;7.40;;;6.57;;
8803;SDS011;4438;50.890;4.726;2022-08-01T02:54:40;7.93;;;6.77;;
8803;SDS011;4438;50.890;4.726;2022-08-01T02:57:08;7.27;;;6.57;;
8803;SDS011;4438;50.890;4.726;2022-08-01T02:59:36;7.77;;;7.00;;
8803;SDS011;4438;50.890;4.726;2022-08-01T03:02:03;7.13;;;6.43;;
8803;SDS011;4438;50.890;4.726;2022-08-01T03:04:30;8.30;;;7.50;;
8803;SDS011;4438;50.890;4.726;2022-08-01T03:06:58;8.80;;;7.90;;
8803;SDS011;4438;50.890;4.726;2022-08-01T03:09:26;8.23;;;7.40;;
8803;SDS011;4438;50.890;4.726;2022-08-01T03:11:53;8.83;;;7.60;;
8803;SDS011;4438;50.890;4.726;2022-08-01T03:14:21;8.00;;;7.30;;
8803;SDS011;4438;50.890;4.726;2022-08-01T03:16:49;8.33;;;7.33;;
8803;SDS011;4438;50.890;4.726;2022-08-01T03:19:16;9.30;;;7.80;;
8803;SDS011;4438;50.890;4.726;2022-08-01T03:21:43;9.47;;;7.33;;
8803;SDS011;4438;50.890;4.726;2022-08-01T03:24:10;9.77;;;8.27;;
8803;SDS011;4438;50.890;4.726;2022-08-01T03:26:37;10.13;;;7.93;;
8803;SDS011;4438;50.890;4.726;2022-08-01T03:29:05;9.40;;;8.40;;
8803;SDS011;4438;50.890;4.726;2022-08-01T03:31:33;9.17;;;8.30;;
8803;SDS011;4438;50.890;4.726;2022-08-01T03:34:00;8.73;;;7.83;;
8803;SDS011;4438;50.890;4.726;2022-08-01T03:36:26;11.20;;;9.33;;
8803;SDS011;4438;50.890;4.726;2022-08-01T03:38:56;11.83;;;10.63;;
8803;SDS011;4438;50.890;4.726;2022-08-01T03:41:23;12.00;;;10.57;;
8803;SDS011;4438;50.890;4.726;2022-08-01T03:44:07;15.53;;;11.23;;
8803;SDS011;4438;50.890;4.726;2022-08-01T03:46:43;12.97;;;10.40;;
8803;SDS011;4438;50.890;4.726;2022-08-01T03:49:11;14.87;;;11.00;;
8803;SDS011;4438;50.890;4.726;2022-08-01T03:51:40;11.27;;;9.90;;
8803;SDS011;4438;50.890;4.726;2022-08-01T03:54:06;14.57;;;11.40;;
8803;SDS011;4438;50.890;4.726;2022-08-01T03:56:34;12.97;;;11.63;;
8803;SDS011;4438;50.890;4.726;2022-08-01T03:59:03;13.70;;;11.43;;
8803;SDS011;4438;50.890;4.726;2022-08-01T04:01:31;16.60;;;11.90;;
8803;SDS011;4438;50.890;4.726;2022-08-01T04:03:58;13.90;;;10.97;;
8803;SDS011;4438;50.890;4.726;2022-08-01T04:06:24;15.13;;;12.33;;
8803;SDS011;4438;50.890;4.726;2022-08-01T04:08:50;12.43;;;11.13;;
8803;SDS011;4438;50.890;4.726;2022-08-01T04:11:26;13.97;;;11.90;;
8803;SDS011;4438;50.890;4.726;2022-08-01T04:13:53;17.87;;;13.33;;
8803;SDS011;4438;50.890;4.726;2022-08-01T04:16:20;16.97;;;14.40;;
8803;SDS011;4438;50.890;4.726;2022-08-01T04:18:46;14.70;;;12.03;;
8803;SDS011;4438;50.890;4.726;2022-08-01T04:21:13;19.07;;;14.40;;
8803;SDS011;4438;50.890;4.726;2022-08-01T04:23:42;13.67;;;12.23;;
8803;SDS011;4438;50.890;4.726;2022-08-01T04:26:09;15.77;;;12.93;;
8803;SDS011;4438;50.890;4.726;2022-08-01T04:28:36;16.80;;;14.30;;
8803;SDS011;4438;50.890;4.726;2022-08-01T04:31:04;15.07;;;12.53;;
8803;SDS011;4438;50.890;4.726;2022-08-01T04:33:32;16.70;;;12.70;;
8803;SDS011;4438;50.890;4.726;2022-08-01T04:36:01;18.17;;;13.50;;
8803;SDS011;4438;50.890;4.726;2022-08-01T04:38:29;15.07;;;12.90;;
8803;SDS011;4438;50.890;4.726;2022-08-01T04:40:56;15.10;;;13.40;;
8803;SDS011;4438;50.890;4.726;2022-08-01T04:43:23;18.47;;;13.53;;
8803;SDS011;4438;50.890;4.726;2022-08-01T04:45:49;14.70;;;12.43;;
8803;SDS011;4438;50.890;4.726;2022-08-01T04:48:16;16.50;;;12.30;;
8803;SDS011;4438;50.890;4.726;2022-08-01T04:50:44;14.80;;;12.23;;
8803;SDS011;4438;50.890;4.726;2022-08-01T04:53:14;12.27;;;11.07;;
8803;SDS011;4438;50.890;4.726;2022-08-01T04:55:42;13.43;;;12.07;;
8803;SDS011;4438;50.890;4.726;2022-08-01T04:58:09;14.87;;;12.97;;
8803;SDS011;4438;50.890;4.726;2022-08-01T05:00:35;11.43;;;10.23;;
8803;SDS011;4438;50.890;4.726;2022-08-01T05:03:01;15.53;;;11.40;;
8803;SDS011;4438;50.890;4.726;2022-08-01T05:05:28;13.47;;;11.10;;
8803;SDS011;4438;50.890;4.726;2022-08-01T05:07:55;12.00;;;10.63;;
8803;SDS011;4438;50.890;4.726;2022-08-01T05:10:21;12.67;;;10.73;;
8803;SDS011;4438;50.890;4.726;2022-08-01T05:12:47;14.33;;;12.03;;
8803;SDS011;4438;50.890;4.726;2022-08-01T05:15:13;12.93;;;10.43;;
8803;SDS011;4438;50.890;4.726;2022-08-01T05:17:41;13.20;;;11.77;;
8803;SDS011;4438;50.890;4.726;2022-08-01T05:20:07;11.10;;;9.97;;
8803;SDS011;4438;50.890;4.726;2022-08-01T05:22:34;10.63;;;9.63;;
8803;SDS011;4438;50.890;4.726;2022-08-01T05:25:00;9.57;;;8.57;;
8803;SDS011;4438;50.890;4.726;2022-08-01T05:27:26;9.90;;;8.90;;
8803;SDS011;4438;50.890;4.726;2022-08-01T05:29:52;11.13;;;10.00;;
8803;SDS011;4438;50.890;4.726;2022-08-01T05:32:18;9.50;;;8.30;;
8803;SDS011;4438;50.890;4.726;2022-08-01T05:34:44;10.10;;;9.10;;
8803;SDS011;4438;50.890;4.726;2022-08-01T05:37:10;11.37;;;9.20;;
8803;SDS011;4438;50.890;4.726;2022-08-01T05:39:37;9.97;;;8.97;;
8803;SDS011;4438;50.890;4.726;2022-08-01T05:42:03;9.90;;;8.77;;
8803;SDS011;4438;50.890;4.726;2022-08-01T05:44:29;8.73;;;7.83;;
8803;SDS011;4438;50.890;4.726;2022-08-01T05:46:55;8.30;;;7.47;;
8803;SDS011;4438;50.890;4.726;2022-08-01T05:49:21;8.17;;;7.30;;
8803;SDS011;4438;50.890;4.726;2022-08-01T05:51:47;8.70;;;7.77;;
8803;SDS011;4438;50.890;4.726;2022-08-01T05:54:13;9.93;;;8.83;;
8803;SDS011;4438;50.890;4.726;2022-08-01T05:56:39;9.87;;;8.70;;
8803;SDS011;4438;50.890;4.726;2022-08-01T05:59:05;8.80;;;7.90;;
8803;SDS011;4438;50.890;4.726;2022-08-01T06:01:31;10.37;;;9.27;;
8803;SDS011;4438;50.890;4.726;2022-08-01T06:03:58;11.00;;;8.70;;
8803;SDS011;4438;50.890;4.726;2022-08-01T06:06:24;10.57;;;8.77;;
8803;SDS011;4438;50.890;4.726;2022-08-01T06:08:50;9.90;;;8.77;;
8803;SDS011;4438;50.890;4.726;2022-08-01T06:11:16;9.03;;;8.10;;
8803;SDS011;4438;50.890;4.726;2022-08-01T06:13:43;9.07;;;7.70;;
8803;SDS011;4438;50.890;4.726;2022-08-01T06:16:09;9.10;;;8.07;;
8803;SDS011;4438;50.890;4.726;2022-08-01T06:18:35;9.97;;;7.83;;
8803;SDS011;4438;50.890;4.726;2022-08-01T06:21:01;7.83;;;6.83;;
8803;SDS011;4438;50.890;4.726;2022-08-01T06:23:27;10.13;;;8.30;;
8803;SDS011;4438;50.890;4.726;2022-08-01T06:25:53;8.20;;;7.20;;
8803;SDS011;4438;50.890;4.726;2022-08-01T06:28:20;8.73;;;7.10;;
8803;SDS011;4438;50.890;4.726;2022-08-01T06:30:46;7.67;;;6.87;;
8803;SDS011;4438;50.890;4.726;2022-08-01T06:33:12;8.80;;;8.00;;
8803;SDS011;4438;50.890;4.726;2022-08-01T06:35:38;7.63;;;6.70;;
8803;SDS011;4438;50.890;4.726;2022-08-01T06:38:04;6.90;;;5.87;;
8803;SDS011;4438;50.890;4.726;2022-08-01T06:40:31;7.07;;;5.83;;
8803;SDS011;4438;50.890;4.726;2022-08-01T06:42:57;8.23;;;7.30;;
8803;SDS011;4438;50.890;4.726;2022-08-01T06:45:23;7.90;;;6.67;;
8803;SDS011;4438;50.890;4.726;2022-08-01T06:47:50;8.77;;;7.40;;
8803;SDS011;4438;50.890;4.726;2022-08-01T06:50:17;9.13;;;7.47;;
8803;SDS011;4438;50.890;4.726;2022-08-01T06:52:43;9.17;;;8.27;;
8803;SDS011;4438;50.890;4.726;2022-08-01T06:55:09;9.40;;;8.50;;
8803;SDS011;4438;50.890;4.726;2022-08-01T06:57:35;9.20;;;7.80;;
8803;SDS011;4438;50.890;4.726;2022-08-01T07:00:05;9.90;;;7.43;;
8803;SDS011;4438;50.890;4.726;2022-08-01T07:02:34;8.67;;;7.20;;
8803;SDS011;4438;50.890;4.726;2022-08-01T07:05:01;9.27;;;7.90;;
8803;SDS011;4438;50.890;4.726;2022-08-01T07:07:29;6.93;;;6.23;;
8803;SDS011;4438;50.890;4.726;2022-08-01T07:09:55;8.90;;;5.70;;
8803;SDS011;4438;50.890;4.726;2022-08-01T07:12:21;6.93;;;5.03;;
8803;SDS011;4438;50.890;4.726;2022-08-01T07:14:47;5.00;;;4.33;;
8803;SDS011;4438;50.890;4.726;2022-08-01T07:17:13;5.53;;;5.03;;
8803;SDS011;4438;50.890;4.726;2022-08-01T07:19:39;5.83;;;5.27;;
8803;SDS011;4438;50.890;4.726;2022-08-01T07:22:05;5.27;;;4.60;;
8803;SDS011;4438;50.890;4.726;2022-08-01T07:24:31;5.40;;;4.57;;
8803;SDS011;4438;50.890;4.726;2022-08-01T07:26:57;5.53;;;5.00;;
8803;SDS011;4438;50.890;4.726;2022-08-01T07:29:24;5.43;;;4.90;;
8803;SDS011;4438;50.890;4.726;2022-08-01T07:31:51;7.03;;;5.10;;
8803;SDS011;4438;50.890;4.726;2022-08-01T07:34:18;5.47;;;4.10;;
8803;SDS011;4438;50.890;4.726;2022-08-01T07:36:44;5.23;;;4.33;;
8803;SDS011;4438;50.890;4.726;2022-08-01T07:39:10;5.00;;;4.50;;
8803;SDS011;4438;50.890;4.726;2022-08-01T07:41:36;5.70;;;5.03;;
8803;SDS011;4438;50.890;4.726;2022-08-01T07:44:02;5.80;;;5.30;;
8803;SDS011;4438;50.890;4.726;2022-08-01T07:46:28;6.73;;;6.03;;
8803;SDS011;4438;50.890;4.726;2022-08-01T07:48:56;6.23;;;5.60;;
8803;SDS011;4438;50.890;4.726;2022-08-01T07:51:22;5.83;;;5.33;;
8803;SDS011;4438;50.890;4.726;2022-08-01T07:53:48;6.00;;;5.40;;
8803;SDS011;4438;50.890;4.726;2022-08-01T07:56:14;5.17;;;4.70;;
8803;SDS011;4438;50.890;4.726;2022-08-01T07:58:40;6.20;;;5.60;;
8803;SDS011;4438;50.890;4.726;2022-08-01T08:01:07;5.20;;;4.73;;
8803;SDS011;4438;50.890;4.726;2022-08-01T08:03:33;5.30;;;4.80;;
8803;SDS011;4438;50.890;4.726;2022-08-01T08:05:59;5.57;;;4.70;;
8803;SDS011;4438;50.890;4.726;2022-08-01T08:08:25;4.90;;;4.50;;
8803;SDS011;4438;50.890;4.726;2022-08-01T08:10:51;4.30;;;3.97;;
8803;SDS011;4438;50.890;4.726;2022-08-01T08:13:17;5.53;;;4.47;;
8803;SDS011;4438;50.890;4.726;2022-08-01T08:15:43;3.87;;;3.57;;
8803;SDS011;4438;50.890;4.726;2022-08-01T08:18:09;5.47;;;4.13;;
8803;SDS011;4438;50.890;4.726;2022-08-01T08:20:35;3.90;;;3.50;;
8803;SDS011;4438;50.890;4.726;2022-08-01T08:23:02;4.50;;;4.10;;
8803;SDS011;4438;50.890;4.726;2022-08-01T08:25:48;5.00;;;4.03;;
8803;SDS011;4438;50.890;4.726;2022-08-01T08:28:14;6.37;;;4.73;;
8803;SDS011;4438;50.890;4.726;2022-08-01T08:30:40;4.83;;;4.43;;
8803;SDS011;4438;50.890;4.726;2022-08-01T08:33:06;4.97;;;4.57;;
8803;SDS011;4438;50.890;4.726;2022-08-01T08:35:32;4.90;;;4.50;;
8803;SDS011;4438;50.890;4.726;2022-08-01T08:37:58;4.80;;;4.40;;
8803;SDS011;4438;50.890;4.726;2022-08-01T08:40:24;5.23;;;4.73;;
8803;SDS011;4438;50.890;4.726;2022-08-01T08:42:55;5.90;;;5.40;;
8803;SDS011;4438;50.890;4.726;2022-08-01T08:45:22;5.63;;;5.23;;
8803;SDS011;4438;50.890;4.726;2022-08-01T08:47:48;5.20;;;4.80;;
8803;SDS011;4438;50.890;4.726;2022-08-01T08:50:15;6.20;;;5.70;;
8803;SDS011;4438;50.890;4.726;2022-08-01T08:52:41;6.70;;;6.20;;
8803;SDS011;4438;50.890;4.726;2022-08-01T08:55:09;5.20;;;4.80;;
8803;SDS011;4438;50.890;4.726;2022-08-01T08:57:36;4.57;;;4.23;;
8803;SDS011;4438;50.890;4.726;2022-08-01T09:00:05;4.33;;;3.93;;
8803;SDS011;4438;50.890;4.726;2022-08-01T09:02:31;4.53;;;4.23;;
8803;SDS011;4438;50.890;4.726;2022-08-01T09:04:57;3.53;;;3.33;;
8803;SDS011;4438;50.890;4.726;2022-08-01T09:07:24;4.20;;;3.90;;
8803;SDS011;4438;50.890;4.726;2022-08-01T09:09:51;5.00;;;3.80;;
8803;SDS011;4438;50.890;4.726;2022-08-01T09:12:17;4.00;;;3.70;;
8803;SDS011;4438;50.890;4.726;2022-08-01T09:14:45;4.47;;;4.10;;
8803;SDS011;4438;50.890;4.726;2022-08-01T09:17:11;4.53;;;4.23;;
8803;SDS011;4438;50.890;4.726;2022-08-01T09:19:39;4.67;;;4.27;;
8803;SDS011;4438;50.890;4.726;2022-08-01T09:22:06;4.00;;;3.70;;
8803;SDS011;4438;50.890;4.726;2022-08-01T09:24:33;3.90;;;3.60;;
8803;SDS011;4438;50.890;4.726;2022-08-01T09:27:00;4.03;;;3.63;;
8803;SDS011;4438;50.890;4.726;2022-08-01T09:29:28;5.77;;;4.40;;
8803;SDS011;4438;50.890;4.726;2022-08-01T09:31:54;5.07;;;4.77;;
8803;SDS011;4438;50.890;4.726;2022-08-01T09:34:25;5.10;;;4.70;;
8803;SDS011;4438;50.890;4.726;2022-08-01T09:36:52;5.03;;;4.67;;
8803;SDS011;4438;50.890;4.726;2022-08-01T09:39:23;4.73;;;4.43;;
8803;SDS011;4438;50.890;4.726;2022-08-01T09:41:50;5.53;;;5.10;;
8803;SDS011;4438;50.890;4.726;2022-08-01T09:44:16;4.50;;;4.20;;
8803;SDS011;4438;50.890;4.726;2022-08-01T09:46:50;4.70;;;4.40;;
8803;SDS011;4438;50.890;4.726;2022-08-01T09:49:26;4.23;;;3.93;;
8803;SDS011;4438;50.890;4.726;2022-08-01T09:51:52;4.30;;;3.90;;
8803;SDS011;4438;50.890;4.726;2022-08-01T09:54:29;4.83;;;4.43;;
8803;SDS011;4438;50.890;4.726;2022-08-01T09:56:55;21.03;;;6.07;;
8803;SDS011;4438;50.890;4.726;2022-08-01T09:59:36;12.17;;;5.13;;
8803;SDS011;4438;50.890;4.726;2022-08-01T10:02:03;6.53;;;4.23;;
8803;SDS011;4438;50.890;4.726;2022-08-01T10:04:29;6.33;;;3.90;;
8803;SDS011;4438;50.890;4.726;2022-08-01T10:07:04;6.00;;;3.87;;
8803;SDS011;4438;50.890;4.726;2022-08-01T10:09:31;8.53;;;4.20;;
8803;SDS011;4438;50.890;4.726;2022-08-01T10:11:58;3.90;;;3.60;;
8803;SDS011;4438;50.890;4.726;2022-08-01T10:14:25;3.80;;;3.50;;
8803;SDS011;4438;50.890;4.726;2022-08-01T10:16:55;3.90;;;3.60;;
8803;SDS011;4438;50.890;4.726;2022-08-01T10:19:23;3.60;;;3.30;;
8803;SDS011;4438;50.890;4.726;2022-08-01T10:21:53;3.50;;;3.20;;
8803;SDS011;4438;50.890;4.726;2022-08-01T10:24:20;4.73;;;3.60;;
8803;SDS011;4438;50.890;4.726;2022-08-01T10:26:54;3.50;;;3.20;;
8803;SDS011;4438;50.890;4.726;2022-08-01T10:29:23;3.13;;;2.93;;
8803;SDS011;4438;50.890;4.726;2022-08-01T10:31:50;3.93;;;3.30;;
8803;SDS011;4438;50.890;4.726;2022-08-01T10:34:17;4.80;;;3.70;;
8803;SDS011;4438;50.890;4.726;2022-08-01T10:36:47;3.70;;;3.40;;
8803;SDS011;4438;50.890;4.726;2022-08-01T10:39:14;3.17;;;2.87;;
8803;SDS011;4438;50.890;4.726;2022-08-01T10:41:40;3.10;;;2.90;;
8803;SDS011;4438;50.890;4.726;2022-08-01T10:44:07;2.97;;;2.63;;
8803;SDS011;4438;50.890;4.726;2022-08-01T10:46:37;3.27;;;3.00;;
8803;SDS011;4438;50.890;4.726;2022-08-01T10:49:10;4.43;;;3.13;;
8803;SDS011;4438;50.890;4.726;2022-08-01T10:51:37;4.00;;;3.30;;
8803;SDS011;4438;50.890;4.726;2022-08-01T10:54:08;3.10;;;2.90;;
8803;SDS011;4438;50.890;4.726;2022-08-01T10:56:44;3.70;;;3.20;;
8803;SDS011;4438;50.890;4.726;2022-08-01T10:59:14;4.70;;;3.47;;
8803;SDS011;4438;50.890;4.726;2022-08-01T11:01:40;3.60;;;3.30;;
8803;SDS011;4438;50.890;4.726;2022-08-01T11:04:10;3.73;;;3.43;;
8803;SDS011;4438;50.890;4.726;2022-08-01T11:09:04;3.87;;;3.57;;
8803;SDS011;4438;50.890;4.726;2022-08-01T11:11:31;4.93;;;3.80;;
8803;SDS011;4438;50.890;4.726;2022-08-01T11:18:52;3.50;;;3.30;;
8803;SDS011;4438;50.890;4.726;2022-08-01T11:21:19;3.40;;;3.10;;
8803;SDS011;4438;50.890;4.726;2022-08-01T11:23:50;3.20;;;3.00;;
8803;SDS011;4438;50.890;4.726;2022-08-01T11:26:18;3.33;;;3.10;;
8803;SDS011;4438;50.890;4.726;2022-08-01T11:28:45;3.93;;;3.07;;
8803;SDS011;4438;50.890;4.726;2022-08-01T11:38:49;3.50;;;3.30;;
8803;SDS011;4438;50.890;4.726;2022-08-01T11:52:08;3.37;;;3.10;;
8803;SDS011;4438;50.890;4.726;2022-08-01T11:54:45;3.47;;;3.17;;
8803;SDS011;4438;50.890;4.726;2022-08-01T11:57:22;2.90;;;2.70;;
8803;SDS011;4438;50.890;4.726;2022-08-01T11:59:49;3.60;;;2.90;;
8803;SDS011;4438;50.890;4.726;2022-08-01T12:04:58;2.70;;;2.50;;
8803;SDS011;4438;50.890;4.726;2022-08-01T12:07:25;2.88;;;2.50;;
8803;SDS011;4438;50.890;4.726;2022-08-01T12:12:27;2.67;;;2.50;;
8803;SDS011;4438;50.890;4.726;2022-08-01T12:14:55;2.55;;;2.33;;
8803;SDS011;4438;50.890;4.726;2022-08-01T12:17:31;2.63;;;2.30;;
8803;SDS011;4438;50.890;4.726;2022-08-01T12:19:57;2.30;;;2.10;;
8803;SDS011;4438;50.890;4.726;2022-08-01T12:22:24;2.25;;;1.75;;
8803;SDS011;4438;50.890;4.726;2022-08-01T12:24:50;2.20;;;1.60;;
8803;SDS011;4438;50.890;4.726;2022-08-01T12:27:23;2.55;;;1.70;;
8803;SDS011;4438;50.890;4.726;2022-08-01T12:29:50;2.85;;;1.77;;
8803;SDS011;4438;50.890;4.726;2022-08-01T12:32:23;1.92;;;1.75;;
8803;SDS011;4438;50.890;4.726;2022-08-01T12:34:50;1.85;;;1.60;;
8803;SDS011;4438;50.890;4.726;2022-08-01T12:37:16;1.77;;;1.67;;
8803;SDS011;4438;50.890;4.726;2022-08-01T12:39:43;2.22;;;1.70;;
8803;SDS011;4438;50.890;4.726;2022-08-01T12:42:09;2.38;;;1.55;;
8803;SDS011;4438;50.890;4.726;2022-08-01T12:44:37;2.05;;;1.70;;
8803;SDS011;4438;50.890;4.726;2022-08-01T12:47:04;1.65;;;1.55;;
8803;SDS011;4438;50.890;4.726;2022-08-01T12:49:31;4.32;;;1.80;;
8803;SDS011;4438;50.890;4.726;2022-08-01T12:51:58;1.75;;;1.60;;
8803;SDS011;4438;50.890;4.726;2022-08-01T12:54:24;1.90;;;1.65;;
8803;SDS011;4438;50.890;4.726;2022-08-01T12:56:51;2.33;;;1.70;;
8803;SDS011;4438;50.890;4.726;2022-08-01T12:59:26;2.03;;;1.60;;
8803;SDS011;4438;50.890;4.726;2022-08-01T13:01:55;1.63;;;1.52;;
8803;SDS011;4438;50.890;4.726;2022-08-01T13:04:22;2.10;;;1.75;;
8803;SDS011;4438;50.890;4.726;2022-08-01T13:06:48;2.78;;;1.52;;
8803;SDS011;4438;50.890;4.726;2022-08-01T13:09:18;2.33;;;1.40;;
8803;SDS011;4438;50.890;4.726;2022-08-01T13:11:44;2.58;;;1.50;;
8803;SDS011;4438;50.890;4.726;2022-08-01T13:14:28;1.50;;;1.40;;
8803;SDS011;4438;50.890;4.726;2022-08-01T13:16:54;1.60;;;1.45;;
8803;SDS011;4438;50.890;4.726;2022-08-01T13:19:20;1.52;;;1.40;;
8803;SDS011;4438;50.890;4.726;2022-08-01T13:21:54;1.52;;;1.35;;
8803;SDS011;4438;50.890;4.726;2022-08-01T13:24:24;1.48;;;1.30;;
8803;SDS011;4438;50.890;4.726;2022-08-01T13:27:01;1.63;;;1.48;;
8803;SDS011;4438;50.890;4.726;2022-08-01T13:31:57;1.45;;;1.35;;
8803;SDS011;4438;50.890;4.726;2022-08-01T13:34:33;1.42;;;1.30;;
8803;SDS011;4438;50.890;4.726;2022-08-01T13:37:00;2.38;;;1.42;;
8803;SDS011;4438;50.890;4.726;2022-08-01T13:39:29;2.40;;;1.45;;
8803;SDS011;4438;50.890;4.726;2022-08-01T13:42:15;1.90;;;1.48;;
8803;SDS011;4438;50.890;4.726;2022-08-01T13:44:42;1.60;;;1.45;;
8803;SDS011;4438;50.890;4.726;2022-08-01T13:47:11;1.60;;;1.50;;
8803;SDS011;4438;50.890;4.726;2022-08-01T13:49:37;1.55;;;1.45;;
8803;SDS011;4438;50.890;4.726;2022-08-01T13:52:04;1.50;;;1.35;;
8803;SDS011;4438;50.890;4.726;2022-08-01T13:54:33;1.98;;;1.60;;
8803;SDS011;4438;50.890;4.726;2022-08-01T13:56:59;2.03;;;1.50;;
8803;SDS011;4438;50.890;4.726;2022-08-01T13:59:25;1.60;;;1.50;;
8803;SDS011;4438;50.890;4.726;2022-08-01T14:01:51;2.00;;;1.50;;
8803;SDS011;4438;50.890;4.726;2022-08-01T14:04:17;2.63;;;1.60;;
8803;SDS011;4438;50.890;4.726;2022-08-01T14:06:44;1.83;;;1.60;;
8803;SDS011;4438;50.890;4.726;2022-08-01T14:09:10;2.30;;;1.50;;
8803;SDS011;4438;50.890;4.726;2022-08-01T14:11:36;1.50;;;1.40;;
8803;SDS011;4438;50.890;4.726;2022-08-01T14:14:02;1.55;;;1.45;;
8803;SDS011;4438;50.890;4.726;2022-08-01T14:16:29;1.88;;;1.48;;
8803;SDS011;4438;50.890;4.726;2022-08-01T14:18:55;2.42;;;1.48;;
8803;SDS011;4438;50.890;4.726;2022-08-01T14:21:21;1.42;;;1.33;;
8803;SDS011;4438;50.890;4.726;2022-08-01T14:23:47;3.95;;;1.60;;
8803;SDS011;4438;50.890;4.726;2022-08-01T14:26:13;3.20;;;1.77;;
8803;SDS011;4438;50.890;4.726;2022-08-01T14:28:39;1.83;;;1.40;;
8803;SDS011;4438;50.890;4.726;2022-08-01T14:31:05;2.13;;;1.60;;
8803;SDS011;4438;50.890;4.726;2022-08-01T14:33:31;1.90;;;1.60;;
8803;SDS011;4438;50.890;4.726;2022-08-01T14:35:57;1.85;;;1.50;;
8803;SDS011;4438;50.890;4.726;2022-08-01T14:38:23;1.50;;;1.38;;
8803;SDS011;4438;50.890;4.726;2022-08-01T14:40:50;3.60;;;1.60;;
8803;SDS011;4438;50.890;4.726;2022-08-01T14:43:19;1.60;;;1.50;;
8803;SDS011;4438;50.890;4.726;2022-08-01T14:45:46;1.67;;;1.58;;
8803;SDS011;4438;50.890;4.726;2022-08-01T14:48:15;3.33;;;1.55;;
8803;SDS011;4438;50.890;4.726;2022-08-01T14:50:41;2.85;;;2.00;;
8803;SDS011;4438;50.890;4.726;2022-08-01T14:53:07;2.75;;;1.60;;
8803;SDS011;4438;50.890;4.726;2022-08-01T14:55:33;3.13;;;1.80;;
8803;SDS011;4438;50.890;4.726;2022-08-01T14:57:59;1.60;;;1.50;;
8803;SDS011;4438;50.890;4.726;2022-08-01T15:00:25;1.88;;;1.50;;
8803;SDS011;4438;50.890;4.726;2022-08-01T15:02:51;1.77;;;1.50;;
8803;SDS011;4438;50.890;4.726;2022-08-01T15:05:17;2.63;;;1.70;;
8803;SDS011;4438;50.890;4.726;2022-08-01T15:07:43;2.20;;;1.90;;
8803;SDS011;4438;50.890;4.726;2022-08-01T15:10:10;2.40;;;1.73;;
8803;SDS011;4438;50.890;4.726;2022-08-01T15:12:36;3.25;;;1.60;;
8803;SDS011;4438;50.890;4.726;2022-08-01T15:15:02;1.73;;;1.60;;
8803;SDS011;4438;50.890;4.726;2022-08-01T15:17:29;1.33;;;1.23;;
8803;SDS011;4438;50.890;4.726;2022-08-01T15:19:57;1.67;;;1.58;;
8803;SDS011;4438;50.890;4.726;2022-08-01T15:22:24;2.63;;;1.50;;
8803;SDS011;4438;50.890;4.726;2022-08-01T15:24:51;1.63;;;1.52;;
8803;SDS011;4438;50.890;4.726;2022-08-01T15:27:17;1.50;;;1.40;;
8803;SDS011;4438;50.890;4.726;2022-08-01T15:29:44;3.13;;;1.60;;
8803;SDS011;4438;50.890;4.726;2022-08-01T15:32:10;2.05;;;1.40;;
8803;SDS011;4438;50.890;4.726;2022-08-01T15:34:37;2.63;;;1.73;;
8803;SDS011;4438;50.890;4.726;2022-08-01T15:37:04;2.80;;;1.60;;
8803;SDS011;4438;50.890;4.726;2022-08-01T15:39:31;1.50;;;1.40;;
8803;SDS011;4438;50.890;4.726;2022-08-01T15:42:11;1.65;;;1.55;;
8803;SDS011;4438;50.890;4.726;2022-08-01T15:44:38;3.05;;;1.40;;
8803;SDS011;4438;50.890;4.726;2022-08-01T15:47:05;3.20;;;1.52;;
8803;SDS011;4438;50.890;4.726;2022-08-01T15:49:31;1.50;;;1.30;;
8803;SDS011;4438;50.890;4.726;2022-08-01T15:51:57;1.30;;;1.20;;
8803;SDS011;4438;50.890;4.726;2022-08-01T15:54:24;1.67;;;1.40;;
8803;SDS011;4438;50.890;4.726;2022-08-01T15:56:50;1.67;;;1.50;;
8803;SDS011;4438;50.890;4.726;2022-08-01T15:59:16;1.50;;;1.40;;
8803;SDS011;4438;50.890;4.726;2022-08-01T16:01:42;3.10;;;1.50;;